createdAt,value
2023-05-12T00:02:32.697Z,99702.63
2023-05-12T00:07:36.520Z,99713.91
2023-05-12T00:12:41.633Z,99706.09
2023-05-12T00:17:45.266Z,99706.09
2023-05-12T00:22:48.749Z,99710.44
2023-05-12T00:27:53.799Z,99700.00
2023-05-12T00:32:57.597Z,99705.22
2023-05-12T00:38:01.119Z,99700.91
2023-05-12T00:43:06.080Z,99702.63
2023-05-12T00:48:09.469Z,99698.31
2023-05-12T00:53:14.322Z,99700.03
2023-05-12T00:58:19.210Z,99694.84
2023-05-12T01:03:23.105Z,99687.88
2023-05-12T01:08:27.044Z,99693.09
2023-05-12T01:13:31.912Z,99687.03
2023-05-12T01:18:38.489Z,99685.28
2023-05-12T01:23:48.195Z,99693.94
2023-05-12T01:28:53.767Z,99687.84
2023-05-12T01:33:57.276Z,99689.59
2023-05-12T01:39:00.904Z,99686.09
2023-05-12T01:44:06.055Z,99686.09
2023-05-12T01:49:09.677Z,99685.25
2023-05-12T01:54:13.341Z,99686.09
2023-05-12T01:59:18.315Z,99686.09
2023-05-12T02:04:21.790Z,99687.00
2023-05-12T02:09:25.301Z,99693.94
2023-05-12T02:14:30.238Z,99699.16
2023-05-12T02:19:34.018Z,99690.50
2023-05-12T02:24:37.658Z,99691.38
2023-05-12T02:29:42.495Z,99704.34
2023-05-12T02:34:45.997Z,99695.63
2023-05-12T02:39:49.415Z,99697.38
2023-05-12T02:44:54.357Z,99699.94
2023-05-12T02:49:59.602Z,99685.16
2023-05-12T02:55:03.060Z,99702.50
2023-05-12T03:00:09.602Z,99707.69
2023-05-12T03:05:13.006Z,99712.03
2023-05-12T03:10:16.630Z,99705.06
2023-05-12T03:15:21.483Z,99708.31
2023-05-12T03:20:24.668Z,99706.34
2023-05-12T03:25:28.114Z,99703.59
2023-05-12T03:30:33.397Z,99703.28
2023-05-12T03:35:36.886Z,99692.47
2023-05-12T03:40:40.301Z,99697.19
2023-05-12T03:45:45.418Z,99694.28
2023-05-12T03:50:49.084Z,99696.72
2023-05-12T03:55:52.614Z,99693.16
2023-05-12T04:01:00.354Z,99688.34
2023-05-12T04:06:04.749Z,99685.63
2023-05-12T04:11:08.679Z,99691.13
2023-05-12T04:16:13.580Z,99682.03
2023-05-12T04:21:17.399Z,99679.50
2023-05-12T04:26:20.969Z,99673.38
2023-05-12T04:31:25.880Z,99682.19
2023-05-12T04:36:29.606Z,99690.47
2023-05-12T04:41:33.200Z,99688.47
2023-05-12T04:46:38.316Z,99691.56
2023-05-12T04:51:43.082Z,99694.00
2023-05-12T04:56:46.545Z,99696.34
2023-05-12T05:01:51.686Z,99685.38
2023-05-12T05:06:55.804Z,99693.66
2023-05-12T05:11:59.486Z,99697.41
2023-05-12T05:17:04.457Z,99688.09
2023-05-12T05:22:07.990Z,99690.31
2023-05-12T05:27:11.507Z,99685.38
2023-05-12T05:32:16.860Z,99688.75
2023-05-12T05:37:20.539Z,99680.38
2023-05-12T05:42:24.007Z,99675.91
2023-05-12T05:47:29.050Z,99676.91
2023-05-12T05:52:32.642Z,99681.34
2023-05-12T05:57:36.175Z,99685.13
2023-05-12T06:02:41.751Z,99686.88
2023-05-12T06:07:45.361Z,99686.31
2023-05-12T06:12:51.089Z,99682.22
2023-05-12T06:17:56.397Z,99678.22
2023-05-12T06:22:59.978Z,99675.81
2023-05-12T06:28:03.518Z,99692.31
2023-05-12T06:33:08.658Z,99682.81
2023-05-12T06:38:12.195Z,99675.09
2023-05-12T06:43:15.701Z,99676.50
2023-05-12T06:48:20.880Z,99673.78
2023-05-12T06:53:25.607Z,99663.72
2023-05-12T06:58:29.393Z,99670.38
2023-05-12T07:03:34.830Z,99656.03
2023-05-12T07:08:38.449Z,99678.97
2023-05-12T07:13:42.026Z,99658.03
2023-05-12T07:18:47.420Z,99669.94
2023-05-12T07:23:51.019Z,99666.09
2023-05-12T07:28:54.639Z,99661.88
2023-05-12T07:33:59.593Z,99665.03
2023-05-12T07:39:03.087Z,99663.28
2023-05-12T07:44:06.923Z,99652.38
2023-05-12T07:49:11.797Z,99648.06
2023-05-12T07:54:15.424Z,99651.38
2023-05-12T07:59:19.146Z,99643.75
2023-05-12T08:04:24.081Z,99626.81
2023-05-12T08:09:27.564Z,99650.56
2023-05-12T08:14:31.024Z,99647.59
2023-05-12T08:19:35.979Z,99644.78
2023-05-12T08:24:39.670Z,99639.53
2023-05-12T08:29:43.154Z,99632.25
2023-05-12T08:34:48.119Z,99627.88
2023-05-12T08:39:51.651Z,99624.88
2023-05-12T08:44:55.445Z,99608.63
2023-05-12T08:50:03.358Z,99611.38
2023-05-12T08:55:12.201Z,99607.63
2023-05-12T09:00:16.907Z,99619.28
2023-05-12T09:05:22.299Z,99622.22
2023-05-12T09:10:35.126Z,99597.34
2023-05-12T09:15:48.660Z,99607.88
2023-05-12T09:20:53.652Z,99603.25
2023-05-12T09:26:01.829Z,99608.00
2023-05-12T09:31:16.286Z,99614.63
2023-05-12T09:36:22.108Z,99613.38
2023-05-12T09:41:25.799Z,99612.06
2023-05-12T09:46:29.387Z,99612.88
2023-05-12T09:51:34.894Z,99610.09
2023-05-12T09:56:39.835Z,99611.91
2023-05-12T10:01:43.983Z,99610.75
2023-05-12T10:06:49.221Z,99597.31
2023-05-12T10:11:54.165Z,99588.34
2023-05-12T10:16:59.320Z,99584.50
2023-05-12T10:22:05.467Z,99575.88
2023-05-12T10:27:09.543Z,99573.63
2023-05-12T10:32:13.331Z,99580.47
2023-05-12T10:37:18.339Z,99573.44
2023-05-12T10:42:26.167Z,99565.88
2023-05-12T10:47:39.007Z,99570.22
2023-05-12T10:52:55.018Z,99569.94
2023-05-12T10:58:06.603Z,99559.25
2023-05-12T11:08:19.858Z,99571.50
2023-05-12T11:13:23.999Z,99546.28
2023-05-12T11:18:27.816Z,99555.47
2023-05-12T11:23:32.772Z,99564.38
2023-05-12T11:28:41.591Z,99548.16
2023-05-12T11:33:45.183Z,99549.22
2023-05-12T11:38:53.117Z,99533.19
2023-05-12T11:43:56.652Z,99540.19
2023-05-12T11:49:01.592Z,99543.78
2023-05-12T11:54:09.148Z,99537.13
2023-05-12T11:59:12.806Z,99513.56
2023-05-12T12:04:16.187Z,99523.56
2023-05-12T12:09:32.235Z,99510.75
2023-05-12T12:14:38.140Z,99521.78
2023-05-12T12:19:42.017Z,99517.59
2023-05-12T12:24:46.998Z,99520.94
2023-05-12T12:29:50.983Z,99521.38
2023-05-12T12:34:54.619Z,99512.75
2023-05-12T12:39:59.770Z,99515.03
2023-05-12T12:45:03.947Z,99499.06
2023-05-12T12:50:10.812Z,99500.00
2023-05-12T12:55:16.067Z,99501.41
2023-05-12T13:00:20.575Z,99505.91
2023-05-12T13:05:24.322Z,99503.09
2023-05-12T13:10:29.561Z,99504.94
2023-05-12T13:15:33.421Z,99493.38
2023-05-12T13:20:36.675Z,99495.00
2023-05-12T13:25:41.770Z,99489.31
2023-05-12T13:30:45.475Z,99485.59
2023-05-12T13:35:49.229Z,99480.00
2023-05-12T13:40:54.638Z,99478.88
2023-05-12T13:45:58.274Z,99475.06
2023-05-12T13:51:02.255Z,99472.91
2023-05-12T13:56:08.816Z,99470.91
2023-05-12T14:01:12.614Z,99463.13
2023-05-12T14:06:16.349Z,99460.47
2023-05-12T14:11:21.306Z,99462.59
2023-05-12T14:16:24.926Z,99450.41
2023-05-12T14:21:28.657Z,99448.00
2023-05-12T14:26:33.638Z,99455.03
2023-05-12T14:31:37.366Z,99467.06
2023-05-12T14:36:41.110Z,99459.09
2023-05-12T14:41:46.042Z,99461.56
2023-05-12T14:46:49.631Z,99453.69
2023-05-12T14:51:53.434Z,99448.97
2023-05-12T14:56:58.422Z,99453.88
2023-05-12T15:02:02.002Z,99435.84
2023-05-12T15:07:06.319Z,99455.19
2023-05-12T15:12:11.696Z,99446.28
2023-05-12T15:17:15.382Z,99454.31
2023-05-12T15:22:19.039Z,99454.84
2023-05-12T15:27:24.016Z,99450.38
2023-05-12T15:32:27.679Z,99451.31
2023-05-12T15:37:31.244Z,99449.00
2023-05-12T15:42:36.232Z,99456.41
2023-05-12T15:47:40.139Z,99456.91
2023-05-12T15:52:43.743Z,99435.78
2023-05-12T15:57:48.745Z,99462.41
2023-05-12T16:02:52.354Z,99463.88
2023-05-12T16:07:55.954Z,99472.19
2023-05-12T16:13:01.006Z,99469.88
2023-05-12T16:18:06.993Z,99467.66
2023-05-12T16:23:12.798Z,99465.22
2023-05-12T16:28:17.854Z,99467.06
2023-05-12T16:33:21.630Z,99481.63
2023-05-12T16:38:25.511Z,99479.06
2023-05-12T16:43:30.458Z,99486.22
2023-05-12T16:48:35.225Z,99477.22
2023-05-12T16:53:39.333Z,99483.53
2023-05-12T16:58:44.488Z,99468.34
2023-05-12T17:03:48.342Z,99481.16
2023-05-12T17:08:52.109Z,99472.34
2023-05-12T17:13:57.566Z,99489.72
2023-05-12T17:24:08.536Z,99492.72
2023-05-12T17:29:13.533Z,99504.19
2023-05-12T17:34:17.090Z,99500.72
2023-05-12T17:39:20.689Z,99508.63
2023-05-12T17:44:25.840Z,99512.16
2023-05-12T17:49:29.476Z,99517.41
2023-05-12T17:54:33.145Z,99510.31
2023-05-12T17:59:38.389Z,99498.66
2023-05-12T18:04:42.022Z,99508.94
2023-05-12T18:09:45.847Z,99506.91
2023-05-12T18:14:51.803Z,99509.28
2023-05-12T18:19:55.676Z,99514.31
2023-05-12T18:24:59.273Z,99506.19
2023-05-12T18:30:04.345Z,99509.28
2023-05-12T18:35:09.948Z,99520.34
2023-05-12T18:40:14.059Z,99517.47
2023-05-12T18:45:19.829Z,99518.84
2023-05-12T18:50:23.899Z,99528.00
2023-05-12T18:55:27.619Z,99530.19
2023-05-12T19:00:33.745Z,99520.97
2023-05-12T19:05:38.029Z,99523.84
2023-05-12T19:10:41.890Z,99521.47
2023-05-12T19:15:47.023Z,99518.28
2023-05-12T19:20:50.623Z,99522.81
2023-05-12T19:25:54.849Z,99521.41
2023-05-12T19:31:00.272Z,99522.56
2023-05-12T19:36:04.121Z,99528.81
2023-05-12T19:41:07.679Z,99517.69
2023-05-12T19:46:12.949Z,99529.13
2023-05-12T19:51:16.795Z,99519.69
2023-05-12T19:56:20.925Z,99527.66
2023-05-12T20:01:26.253Z,99518.28
2023-05-12T20:06:29.969Z,99515.78
2023-05-12T20:11:33.646Z,99517.59
2023-05-12T20:16:39.135Z,99521.16
2023-05-12T20:21:42.805Z,99510.84
2023-05-12T20:26:46.424Z,99514.38
2023-05-12T20:31:52.705Z,99515.31
2023-05-12T20:36:56.325Z,99521.50
2023-05-12T20:42:00.270Z,99518.09
2023-05-12T20:47:05.495Z,99525.06
2023-05-12T20:52:09.364Z,99516.47
2023-05-12T20:57:12.984Z,99524.31
2023-05-12T21:02:19.056Z,99519.97
2023-05-12T21:07:22.937Z,99526.97
2023-05-12T21:12:26.567Z,99530.47
2023-05-12T21:17:31.538Z,99529.59
2023-05-12T21:22:35.064Z,99501.13
2023-05-12T21:27:40.809Z,99528.75
2023-05-12T21:32:46.337Z,99532.19
2023-05-12T21:37:50.231Z,99533.91
2023-05-12T21:42:53.688Z,99533.03
2023-05-12T21:47:58.623Z,99528.66
2023-05-12T21:53:02.188Z,99525.13
2023-05-12T21:58:05.718Z,99534.59
2023-05-12T22:03:10.913Z,99530.28
2023-05-12T22:08:14.911Z,99532.81
2023-05-12T22:13:19.274Z,99533.63
2023-05-12T22:18:24.243Z,99530.97
2023-05-12T22:23:27.746Z,99542.31
2023-05-12T22:28:31.238Z,99540.59
2023-05-12T22:33:36.349Z,99540.59
2023-05-12T22:38:39.898Z,99538.03
2023-05-12T22:43:43.331Z,99546.72
2023-05-12T22:48:48.205Z,99536.31
2023-05-12T22:53:51.685Z,99539.84
2023-05-12T22:58:55.161Z,99535.53
2023-05-12T23:04:00.065Z,99535.59
2023-05-12T23:09:03.706Z,99540.84
2023-05-12T23:14:07.174Z,99540.03
2023-05-12T23:19:12.262Z,99552.19
2023-05-12T23:24:15.877Z,99550.50
2023-05-12T23:29:19.521Z,99547.94
2023-05-12T23:34:24.396Z,99548.84
2023-05-12T23:39:27.920Z,99548.91
2023-05-12T23:44:31.923Z,99555.84
2023-05-12T23:49:36.860Z,99555.91
2023-05-12T23:54:40.465Z,99556.00
2023-05-12T23:59:43.924Z,99564.72
